createdAt,value
2023-04-19T00:02:25.690Z,96.90
2023-04-19T00:04:53.589Z,97.10
2023-04-19T00:07:20.991Z,97.10
2023-04-19T00:09:48.290Z,97.10
2023-04-19T00:12:15.535Z,97.30
2023-04-19T00:14:42.816Z,97.40
2023-04-19T00:17:11.561Z,97.50
2023-04-19T00:19:39.172Z,97.60
2023-04-19T00:22:06.460Z,97.70
2023-04-19T00:24:33.656Z,97.80
2023-04-19T00:27:01.889Z,97.70
2023-04-19T00:29:29.203Z,97.90
2023-04-19T00:31:56.415Z,97.90
2023-04-19T00:34:24.554Z,98.10
2023-04-19T00:36:51.924Z,98.10
2023-04-19T00:39:19.302Z,98.20
2023-04-19T00:41:46.493Z,98.30
2023-04-19T00:44:14.093Z,98.40
2023-04-19T00:46:43.384Z,98.50
2023-04-19T00:49:10.787Z,98.70
2023-04-19T00:51:38.368Z,98.60
2023-04-19T00:54:06.551Z,98.80
2023-04-19T00:56:35.712Z,98.80
2023-04-19T00:59:03.035Z,98.90
2023-04-19T01:01:31.606Z,99.00
2023-04-19T01:03:59.131Z,99.20
2023-04-19T01:06:30.018Z,99.20
2023-04-19T01:08:57.569Z,99.40
2023-04-19T01:11:25.558Z,99.40
2023-04-19T01:13:52.937Z,99.50
2023-04-19T01:16:20.376Z,99.60
2023-04-19T01:18:50.044Z,99.70
2023-04-19T01:21:17.348Z,99.80
2023-04-19T01:23:45.397Z,99.90
2023-04-19T01:26:12.712Z,99.90
2023-04-19T01:28:39.981Z,99.90
2023-04-19T01:31:07.331Z,99.90
2023-04-19T01:33:34.629Z,99.90
2023-04-19T01:36:01.889Z,99.90
2023-04-19T01:38:29.160Z,99.90
2023-04-19T01:40:57.377Z,99.90
2023-04-19T01:43:25.309Z,99.90
2023-04-19T01:45:52.723Z,99.90
2023-04-19T01:48:20.433Z,99.90
2023-04-19T01:50:47.731Z,99.90
2023-04-19T01:53:15.073Z,99.90
2023-04-19T01:55:42.688Z,99.90
2023-04-19T01:58:09.975Z,99.90
2023-04-19T02:00:37.291Z,99.90
2023-04-19T02:03:05.254Z,99.90
2023-04-19T02:05:32.749Z,99.90
2023-04-19T02:08:01.562Z,99.90
2023-04-19T02:10:31.434Z,99.90
2023-04-19T02:12:58.791Z,99.90
2023-04-19T02:15:26.194Z,99.90
2023-04-19T02:17:54.037Z,99.90
2023-04-19T02:20:21.376Z,99.90
2023-04-19T02:22:49.600Z,99.90
2023-04-19T02:25:16.923Z,99.90
2023-04-19T02:27:46.606Z,99.90
2023-04-19T02:30:14.267Z,99.90
2023-04-19T02:32:41.559Z,99.90
2023-04-19T02:35:09.039Z,99.90
2023-04-19T02:37:36.237Z,99.90
2023-04-19T02:40:05.441Z,99.90
2023-04-19T02:42:32.684Z,99.90
2023-04-19T02:45:00.083Z,99.90
2023-04-19T02:47:27.471Z,99.90
2023-04-19T02:49:54.662Z,99.90
2023-04-19T02:52:22.392Z,99.90
2023-04-19T02:54:49.675Z,99.90
2023-04-19T02:57:16.923Z,99.90
2023-04-19T02:59:45.095Z,99.90
2023-04-19T03:02:12.457Z,99.90
2023-04-19T03:04:40.057Z,99.90
2023-04-19T03:07:08.999Z,99.90
2023-04-19T03:09:36.634Z,99.90
2023-04-19T03:12:05.258Z,99.90
2023-04-19T03:14:33.990Z,99.90
2023-04-19T03:17:01.262Z,99.90
2023-04-19T03:19:28.867Z,99.90
2023-04-19T03:21:56.328Z,99.90
2023-04-19T03:24:30.864Z,99.90
2023-04-19T03:27:03.339Z,99.90
2023-04-19T03:29:31.757Z,99.90
2023-04-19T03:32:02.925Z,99.90
2023-04-19T03:34:30.775Z,99.90
2023-04-19T03:36:58.121Z,99.90
2023-04-19T03:39:25.466Z,99.90
2023-04-19T03:42:01.319Z,99.90
2023-04-19T03:44:37.579Z,99.90
2023-04-19T03:47:07.228Z,99.90
2023-04-19T03:49:40.948Z,99.90
2023-04-19T03:52:08.208Z,99.90
2023-04-19T03:54:35.684Z,99.90
2023-04-19T03:57:07.606Z,99.90
2023-04-19T03:59:38.731Z,99.90
2023-04-19T04:02:07.013Z,99.90
2023-04-19T04:04:34.844Z,99.90
2023-04-19T04:07:02.422Z,99.90
2023-04-19T04:09:29.831Z,99.90
2023-04-19T04:11:57.239Z,99.90
2023-04-19T04:14:25.504Z,99.90
2023-04-19T04:16:53.096Z,99.90
2023-04-19T04:19:22.056Z,99.90
2023-04-19T04:21:50.315Z,99.90
2023-04-19T04:24:20.093Z,99.90
2023-04-19T04:27:10.047Z,99.90
2023-04-19T04:29:41.169Z,99.90
2023-04-19T04:32:10.524Z,99.90
2023-04-19T04:34:42.621Z,99.90
2023-04-19T04:37:13.866Z,99.90
2023-04-19T04:39:42.092Z,99.90
2023-04-19T04:42:10.970Z,99.90
2023-04-19T04:44:39.002Z,99.90
2023-04-19T04:47:07.928Z,99.90
2023-04-19T04:49:48.070Z,99.90
2023-04-19T04:52:17.374Z,99.90
2023-04-19T04:54:57.314Z,99.90
2023-04-19T04:57:30.094Z,99.90
2023-04-19T04:59:58.181Z,99.90
2023-04-19T05:02:29.211Z,99.90
2023-04-19T05:04:56.657Z,99.90
2023-04-19T05:07:24.007Z,99.90
2023-04-19T05:09:51.884Z,99.90
2023-04-19T05:12:24.472Z,99.90
2023-04-19T05:14:51.917Z,99.90
2023-04-19T05:17:19.212Z,99.90
2023-04-19T05:19:46.892Z,99.90
2023-04-19T05:22:14.369Z,99.90
2023-04-19T05:24:42.458Z,99.90
2023-04-19T05:27:10.373Z,99.90
2023-04-19T05:29:37.620Z,99.90
2023-04-19T05:32:06.457Z,99.90
2023-04-19T05:34:37.293Z,99.90
2023-04-19T05:37:05.769Z,99.90
2023-04-19T05:39:33.329Z,99.90
2023-04-19T05:42:01.729Z,99.90
2023-04-19T05:44:29.073Z,99.90
2023-04-19T05:46:56.397Z,99.90
2023-04-19T05:49:49.677Z,99.90
2023-04-19T05:52:31.273Z,99.90
2023-04-19T05:55:00.318Z,99.90
2023-04-19T05:57:27.980Z,99.90
2023-04-19T05:59:55.434Z,99.90
2023-04-19T06:02:26.525Z,99.90
2023-04-19T06:04:54.154Z,99.90
2023-04-19T06:07:30.871Z,99.90
2023-04-19T06:10:00.487Z,99.90
2023-04-19T06:12:28.022Z,99.90
2023-04-19T06:14:55.291Z,99.90
2023-04-19T06:17:25.028Z,99.90
2023-04-19T06:19:52.940Z,99.90
2023-04-19T06:22:20.788Z,99.90
2023-04-19T06:24:48.282Z,99.90
2023-04-19T06:27:16.956Z,99.90
2023-04-19T06:29:44.201Z,99.90
2023-04-19T06:32:11.787Z,99.90
2023-04-19T06:34:39.050Z,99.90
2023-04-19T06:37:06.330Z,99.90
2023-04-19T06:39:33.682Z,99.90
2023-04-19T06:42:02.342Z,99.90
2023-04-19T06:44:29.750Z,99.90
2023-04-19T06:46:56.938Z,99.90
2023-04-19T06:49:24.452Z,99.90
2023-04-19T06:51:51.759Z,99.90
2023-04-19T06:54:19.430Z,99.90
2023-04-19T06:56:48.803Z,99.90
2023-04-19T06:59:19.145Z,99.90
2023-04-19T07:01:47.668Z,99.90
2023-04-19T07:04:16.015Z,99.90
2023-04-19T07:06:43.568Z,99.90
2023-04-19T07:09:10.845Z,99.90
2023-04-19T07:11:38.070Z,99.90
2023-04-19T07:14:05.379Z,99.90
2023-04-19T07:16:33.540Z,99.90
2023-04-19T07:19:01.127Z,99.90
2023-04-19T07:21:32.871Z,99.90
2023-04-19T07:24:00.221Z,99.90
2023-04-19T07:26:27.516Z,99.90
2023-04-19T07:28:54.683Z,99.90
2023-04-19T07:31:22.022Z,99.90
2023-04-19T07:33:49.359Z,99.90
2023-04-19T07:36:16.802Z,99.90
2023-04-19T07:38:44.212Z,99.90
2023-04-19T07:41:11.578Z,99.90
2023-04-19T07:43:39.409Z,99.90
2023-04-19T07:46:16.220Z,99.90
2023-04-19T07:48:43.761Z,99.90
2023-04-19T07:51:16.754Z,99.90
2023-04-19T07:53:44.459Z,99.90
2023-04-19T07:56:13.291Z,99.60
2023-04-19T07:58:41.491Z,99.30
2023-04-19T08:01:09.110Z,99.10
2023-04-19T08:03:37.751Z,98.60
2023-04-19T08:06:08.824Z,98.30
2023-04-19T08:08:37.198Z,98.10
2023-04-19T08:11:05.179Z,97.60
2023-04-19T08:13:32.473Z,97.00
2023-04-19T08:18:29.928Z,96.70
2023-04-19T08:20:58.033Z,96.70
2023-04-19T08:23:31.774Z,96.40
2023-04-19T08:26:05.967Z,96.10
2023-04-19T08:28:33.340Z,95.60
2023-04-19T08:31:00.724Z,95.20
2023-04-19T08:33:32.038Z,94.80
2023-04-19T08:35:59.415Z,94.50
2023-04-19T08:38:26.722Z,94.50
2023-04-19T08:40:58.020Z,94.60
2023-04-19T08:43:28.686Z,94.30
2023-04-19T08:45:57.072Z,94.60
2023-04-19T08:48:25.572Z,94.60
2023-04-19T08:51:04.295Z,94.30
2023-04-19T08:53:34.922Z,94.50
2023-04-19T08:56:15.175Z,93.40
2023-04-19T09:04:02.610Z,92.30
2023-04-19T09:06:38.953Z,92.00
2023-04-19T09:11:50.790Z,91.50
2023-04-19T09:14:19.747Z,90.70
2023-04-19T09:16:47.030Z,90.30
2023-04-19T09:19:23.916Z,90.00
2023-04-19T09:21:54.757Z,88.30
2023-04-19T09:27:13.954Z,88.10
2023-04-19T09:29:41.176Z,88.60
2023-04-19T09:32:08.558Z,88.30
2023-04-19T09:34:35.844Z,85.60
2023-04-19T09:37:21.452Z,84.30
2023-04-19T09:40:00.286Z,84.40
2023-04-19T09:48:04.752Z,79.40
2023-04-19T09:50:33.888Z,78.00
2023-04-19T09:53:06.597Z,77.90
2023-04-19T09:55:52.495Z,77.30
2023-04-19T09:58:29.304Z,77.60
2023-04-19T10:01:13.459Z,77.50
2023-04-19T10:03:48.946Z,77.50
2023-04-19T10:08:53.452Z,74.30
2023-04-19T10:11:22.386Z,73.40
2023-04-19T10:13:53.843Z,72.90
2023-04-19T10:16:21.160Z,72.40
2023-04-19T10:18:52.866Z,72.00
2023-04-19T10:21:20.983Z,72.30
2023-04-19T10:23:48.537Z,72.00
2023-04-19T10:26:16.139Z,71.50
2023-04-19T10:28:43.526Z,70.90
2023-04-19T10:31:14.265Z,70.20
2023-04-19T10:33:42.280Z,70.30
2023-04-19T10:36:11.666Z,69.60
2023-04-19T10:38:57.100Z,72.00
2023-04-19T10:41:24.409Z,75.50
2023-04-19T10:43:58.077Z,76.10
2023-04-19T10:46:26.141Z,76.50
2023-04-19T10:48:58.769Z,78.10
2023-04-19T10:51:35.680Z,78.70
2023-04-19T10:54:04.677Z,78.60
2023-04-19T10:56:35.027Z,75.90
2023-04-19T10:59:08.442Z,76.40
2023-04-19T11:01:45.813Z,76.10
2023-04-19T11:04:29.954Z,76.90
2023-04-19T11:07:02.831Z,76.00
2023-04-19T11:09:39.279Z,76.60
2023-04-19T11:12:08.559Z,77.80
2023-04-19T11:14:46.626Z,78.40
2023-04-19T11:17:18.293Z,78.40
2023-04-19T11:19:52.895Z,77.50
2023-04-19T11:22:44.515Z,78.00
2023-04-19T11:25:19.483Z,76.90
2023-04-19T11:27:49.345Z,76.40
2023-04-19T11:30:31.119Z,76.10
2023-04-19T11:32:58.653Z,75.40
2023-04-19T11:35:27.629Z,75.50
2023-04-19T11:37:56.938Z,74.20
2023-04-19T11:40:26.280Z,75.80
2023-04-19T11:42:55.901Z,74.40
2023-04-19T11:45:34.391Z,74.60
2023-04-19T11:48:06.214Z,72.80
2023-04-19T11:50:40.785Z,72.50
2023-04-19T11:53:16.873Z,69.70
2023-04-19T11:55:48.625Z,70.10
2023-04-19T11:58:31.024Z,70.70
2023-04-19T12:01:07.231Z,71.20
2023-04-19T12:03:44.999Z,72.30
2023-04-19T12:06:17.833Z,72.80
2023-04-19T12:08:49.918Z,75.20
2023-04-19T12:11:19.292Z,77.50
2023-04-19T12:13:46.559Z,73.00
2023-04-19T12:16:14.186Z,71.70
2023-04-19T12:18:48.244Z,71.10
2023-04-19T12:21:27.175Z,68.10
2023-04-19T12:23:58.792Z,65.80
2023-04-19T12:26:29.811Z,66.00
2023-04-19T12:28:58.636Z,65.00
2023-04-19T12:31:27.008Z,64.70
2023-04-19T12:33:54.451Z,64.20
2023-04-19T12:36:22.366Z,64.70
2023-04-19T12:38:49.653Z,67.10
2023-04-19T12:41:16.934Z,67.00
2023-04-19T12:43:44.144Z,66.50
2023-04-19T12:46:11.569Z,66.70
2023-04-19T12:48:39.728Z,65.70
2023-04-19T12:51:07.057Z,62.90
2023-04-19T12:53:34.348Z,60.50
2023-04-19T12:56:01.700Z,60.90
2023-04-19T12:58:29.098Z,60.40
2023-04-19T13:00:56.515Z,60.00
2023-04-19T13:03:23.847Z,60.50
2023-04-19T13:05:51.192Z,59.80
2023-04-19T13:08:28.190Z,58.70
2023-04-19T13:11:01.190Z,57.80
2023-04-19T13:13:29.436Z,56.30
2023-04-19T13:15:56.694Z,57.40
2023-04-19T13:18:23.990Z,55.70
2023-04-19T13:20:51.227Z,54.40
2023-04-19T13:23:18.552Z,56.10
2023-04-19T13:25:46.169Z,53.20
2023-04-19T13:28:13.441Z,54.40
2023-04-19T13:30:41.042Z,53.20
2023-04-19T13:33:09.011Z,51.20
2023-04-19T13:35:36.637Z,51.00
2023-04-19T13:38:03.886Z,50.50
2023-04-19T13:40:31.281Z,50.60
2023-04-19T13:42:59.092Z,52.10
2023-04-19T13:45:26.702Z,50.50
2023-04-19T13:47:54.372Z,51.30
2023-04-19T13:50:21.672Z,50.20
2023-04-19T13:52:48.928Z,49.80
2023-04-19T13:55:16.299Z,49.30
2023-04-19T13:57:43.840Z,49.60
2023-04-19T14:00:11.473Z,48.50
2023-04-19T14:02:39.140Z,49.30
2023-04-19T14:05:07.104Z,48.20
2023-04-19T14:07:34.327Z,46.90
2023-04-19T14:10:01.774Z,46.60
2023-04-19T14:12:29.191Z,47.80
2023-04-19T14:14:56.492Z,46.70
2023-04-19T14:17:23.768Z,46.00
2023-04-19T14:19:51.167Z,45.10
2023-04-19T14:22:18.645Z,45.20
2023-04-19T14:24:46.256Z,45.50
2023-04-19T14:27:13.525Z,45.20
2023-04-19T14:29:40.769Z,44.70
2023-04-19T14:32:24.175Z,44.30
2023-04-19T14:34:54.826Z,44.20
2023-04-19T14:37:23.575Z,43.50
2023-04-19T14:39:51.094Z,44.00
2023-04-19T14:42:20.087Z,45.10
2023-04-19T14:44:51.347Z,45.40
2023-04-19T14:47:18.745Z,44.80
2023-04-19T14:49:46.179Z,45.80
2023-04-19T14:52:13.428Z,45.10
2023-04-19T14:54:40.922Z,45.10
2023-04-19T14:57:08.320Z,45.20
2023-04-19T14:59:35.708Z,44.80
2023-04-19T15:02:03.104Z,44.70
2023-04-19T15:04:30.671Z,43.20
2023-04-19T15:06:57.997Z,42.40
2023-04-19T15:09:26.851Z,40.80
2023-04-19T15:11:54.068Z,39.60
2023-04-19T15:14:21.250Z,38.70
2023-04-19T15:16:48.548Z,38.20
2023-04-19T15:19:16.525Z,37.40
2023-04-19T15:21:44.167Z,36.80
2023-04-19T15:24:11.846Z,36.30
2023-04-19T15:26:39.264Z,36.30
2023-04-19T15:29:06.529Z,36.40
2023-04-19T15:31:33.896Z,36.90
2023-04-19T15:34:04.456Z,36.80
2023-04-19T15:36:32.009Z,37.20
2023-04-19T15:38:59.762Z,37.50
2023-04-19T15:41:27.170Z,37.60
2023-04-19T15:43:54.521Z,38.20
2023-04-19T15:46:22.277Z,37.80
2023-04-19T15:48:50.629Z,37.80
2023-04-19T15:51:18.003Z,37.90
2023-04-19T15:53:45.345Z,38.20
2023-04-19T15:56:12.751Z,38.20
2023-04-19T15:58:40.083Z,38.80
2023-04-19T16:01:13.645Z,39.70
2023-04-19T16:03:41.724Z,40.20
2023-04-19T16:06:09.873Z,41.00
2023-04-19T16:08:37.148Z,41.30
2023-04-19T16:11:05.975Z,41.40
2023-04-19T16:13:33.314Z,41.60
2023-04-19T16:16:01.389Z,41.70
2023-04-19T16:18:28.833Z,41.80
2023-04-19T16:20:56.249Z,42.20
2023-04-19T16:23:24.425Z,42.70
2023-04-19T16:25:51.723Z,43.20
2023-04-19T16:28:20.023Z,42.60
2023-04-19T16:30:47.528Z,42.60
2023-04-19T16:33:15.877Z,43.30
2023-04-19T16:35:43.323Z,43.20
2023-04-19T16:38:10.833Z,43.20
2023-04-19T16:40:38.283Z,43.60
2023-04-19T16:43:06.655Z,43.70
2023-04-19T16:45:34.027Z,43.80
2023-04-19T16:48:01.388Z,43.80
2023-04-19T16:50:28.720Z,44.50
2023-04-19T16:52:56.008Z,44.40
2023-04-19T16:55:23.421Z,44.60
2023-04-19T16:57:51.199Z,44.90
2023-04-19T17:00:19.086Z,44.90
2023-04-19T17:02:46.661Z,44.90
2023-04-19T17:05:16.144Z,44.90
2023-04-19T17:07:43.935Z,44.90
2023-04-19T17:10:12.385Z,44.90
2023-04-19T17:12:39.790Z,45.10
2023-04-19T17:15:07.437Z,44.90
2023-04-19T17:17:34.678Z,45.00
2023-04-19T17:20:02.067Z,45.40
2023-04-19T17:22:29.796Z,45.10
2023-04-19T17:24:58.874Z,44.80
2023-04-19T17:27:26.178Z,45.70
2023-04-19T17:29:53.440Z,44.80
2023-04-19T17:32:20.778Z,45.30
2023-04-19T17:34:48.227Z,43.90
2023-04-19T17:37:15.546Z,44.20
2023-04-19T17:39:42.929Z,44.40
2023-04-19T17:42:10.176Z,45.00
2023-04-19T17:44:37.529Z,44.70
2023-04-19T17:47:04.898Z,45.30
2023-04-19T17:49:32.277Z,45.90
2023-04-19T17:51:59.552Z,45.50
2023-04-19T17:54:26.825Z,45.50
2023-04-19T17:56:54.666Z,45.70
2023-04-19T17:59:22.198Z,45.30
2023-04-19T18:01:49.421Z,45.30
2023-04-19T18:04:19.956Z,45.40
2023-04-19T18:06:47.605Z,45.30
2023-04-19T18:09:16.907Z,45.60
2023-04-19T18:11:44.453Z,45.90
2023-04-19T18:14:11.694Z,46.10
2023-04-19T18:16:38.897Z,46.20
2023-04-19T18:19:06.184Z,46.40
2023-04-19T18:21:33.636Z,46.50
2023-04-19T18:24:00.972Z,46.60
2023-04-19T18:26:42.109Z,47.00
2023-04-19T18:29:10.327Z,46.70
2023-04-19T18:31:37.876Z,47.00
2023-04-19T18:34:05.155Z,47.30
2023-04-19T18:36:32.647Z,47.60
2023-04-19T18:39:00.001Z,47.60
2023-04-19T18:41:27.320Z,47.60
2023-04-19T18:44:24.688Z,47.70
2023-04-19T18:46:41.975Z,47.90
2023-04-19T18:49:10.190Z,48.50
2023-04-19T18:51:38.384Z,48.70
2023-04-19T18:54:05.829Z,49.00
2023-04-19T18:57:10.829Z,49.00
2023-04-19T18:59:20.424Z,49.10
2023-04-19T19:01:48.454Z,49.00
2023-04-19T19:04:42.952Z,49.00
2023-04-19T19:07:27.363Z,49.40
2023-04-19T19:09:57.117Z,49.50
2023-04-19T19:12:25.542Z,49.60
2023-04-19T19:14:52.907Z,49.70
2023-04-19T19:17:20.259Z,49.90
2023-04-19T19:19:47.609Z,50.10
2023-04-19T19:22:25.787Z,50.20
2023-04-19T19:24:54.820Z,50.50
2023-04-19T19:27:22.166Z,50.60
2023-04-19T19:29:49.862Z,50.90
2023-04-19T19:32:17.234Z,50.90
2023-04-19T19:34:54.940Z,51.10
2023-04-19T19:37:27.047Z,51.90
2023-04-19T19:39:56.441Z,51.50
2023-04-19T19:42:25.039Z,51.60
2023-04-19T19:44:55.924Z,51.70
2023-04-19T19:47:24.434Z,51.90
2023-04-19T19:52:22.422Z,52.10
2023-04-19T19:54:49.760Z,52.30
2023-04-19T19:59:55.615Z,52.70
2023-04-19T20:02:24.836Z,53.40
2023-04-19T20:04:52.589Z,52.80
2023-04-19T20:09:52.522Z,53.20
2023-04-19T20:12:19.799Z,53.30
2023-04-19T20:14:47.084Z,53.50
2023-04-19T20:17:14.559Z,53.50
2023-04-19T20:19:44.759Z,53.50
2023-04-19T20:22:12.326Z,53.70
2023-04-19T20:24:40.386Z,53.90
2023-04-19T20:27:07.761Z,53.90
2023-04-19T20:29:35.113Z,53.80
2023-04-19T20:32:02.533Z,53.70
2023-04-19T20:34:29.933Z,53.80
2023-04-19T20:36:58.676Z,53.80
2023-04-19T20:39:26.679Z,54.10
2023-04-19T20:41:54.032Z,54.10
2023-04-19T20:44:22.659Z,54.20
2023-04-19T20:46:52.011Z,54.10
2023-04-19T20:49:19.356Z,54.30
2023-04-19T20:51:48.408Z,54.40
2023-04-19T20:54:15.736Z,54.60
2023-04-19T20:56:43.085Z,54.70
2023-04-19T20:59:10.529Z,54.60
2023-04-19T21:01:37.980Z,54.60
2023-04-19T21:04:05.478Z,54.90
2023-04-19T21:06:32.917Z,54.90
2023-04-19T21:09:00.162Z,55.00
2023-04-19T21:11:27.458Z,55.10
2023-04-19T21:13:55.055Z,55.20
2023-04-19T21:16:22.759Z,55.30
2023-04-19T21:18:50.096Z,55.30
2023-04-19T21:21:17.458Z,55.40
2023-04-19T21:23:44.661Z,55.60
2023-04-19T21:26:12.091Z,55.90
2023-04-19T21:28:39.379Z,56.10
2023-04-19T21:31:07.008Z,56.40
2023-04-19T21:33:34.374Z,56.50
2023-04-19T21:36:01.923Z,56.80
2023-04-19T21:38:29.274Z,56.90
2023-04-19T21:40:56.782Z,56.90
2023-04-19T21:43:24.085Z,57.10
2023-04-19T21:45:51.581Z,57.30
2023-04-19T21:48:18.852Z,57.40
2023-04-19T21:50:46.226Z,57.50
2023-04-19T21:53:13.432Z,57.70
2023-04-19T21:55:40.673Z,58.00
2023-04-19T21:58:07.834Z,58.00
2023-04-19T22:00:35.172Z,58.00
2023-04-19T22:03:02.669Z,58.00
2023-04-19T22:05:30.015Z,58.20
2023-04-19T22:07:57.623Z,58.40
2023-04-19T22:10:25.734Z,58.20
2023-04-19T22:12:58.719Z,58.40
2023-04-19T22:15:27.874Z,58.40
2023-04-19T22:17:57.192Z,58.40
2023-04-19T22:20:25.913Z,58.50
2023-04-19T22:22:53.177Z,58.60
2023-04-19T22:25:20.521Z,58.80
2023-04-19T22:27:48.949Z,58.80
2023-04-19T22:30:16.473Z,59.10
2023-04-19T22:32:43.971Z,59.10
2023-04-19T22:35:11.325Z,59.20
2023-04-19T22:37:38.574Z,59.30
2023-04-19T22:40:06.796Z,60.00
2023-04-19T22:42:34.123Z,59.70
2023-04-19T22:45:01.369Z,59.80
2023-04-19T22:47:28.674Z,59.60
2023-04-19T22:49:56.016Z,59.60
2023-04-19T22:52:23.660Z,59.80
2023-04-19T22:54:50.902Z,60.00
2023-04-19T22:57:18.233Z,60.00
2023-04-19T22:59:45.654Z,60.20
2023-04-19T23:02:12.939Z,60.00
2023-04-19T23:04:40.877Z,60.00
2023-04-19T23:07:08.204Z,60.10
2023-04-19T23:09:39.001Z,60.10
2023-04-19T23:12:08.330Z,60.10
2023-04-19T23:14:35.718Z,60.20
2023-04-19T23:17:03.043Z,60.80
2023-04-19T23:19:30.472Z,60.80
2023-04-19T23:21:57.722Z,60.80
2023-04-19T23:24:25.526Z,60.90
2023-04-19T23:26:53.033Z,61.30
2023-04-19T23:29:20.579Z,61.30
2023-04-19T23:31:48.115Z,61.20
2023-04-19T23:34:16.566Z,61.20
2023-04-19T23:36:43.806Z,61.10
2023-04-19T23:39:11.022Z,61.20
2023-04-19T23:41:38.301Z,61.20
2023-04-19T23:44:05.890Z,61.30
2023-04-19T23:46:33.508Z,61.30
2023-04-19T23:49:00.962Z,61.20
2023-04-19T23:51:28.131Z,61.20
2023-04-19T23:53:55.411Z,60.90
2023-04-19T23:56:22.723Z,60.90
2023-04-19T23:58:50.003Z,60.70
